createdAt,value
2022-08-18T00:00:14.359Z,24.65
2022-08-18T00:03:13.732Z,24.40
2022-08-18T00:05:56.480Z,23.42
2022-08-18T00:08:25.071Z,23.33
2022-08-18T00:10:53.972Z,24.63
2022-08-18T00:13:24.081Z,23.13
2022-08-18T00:15:52.659Z,23.80
2022-08-18T00:18:21.468Z,21.80
2022-08-18T00:20:50.280Z,21.45
2022-08-18T00:23:19.084Z,20.55
2022-08-18T00:25:49.951Z,18.08
2022-08-18T00:28:19.504Z,22.23
2022-08-18T00:30:54.401Z,18.65
2022-08-18T00:33:24.059Z,22.30
2022-08-18T00:35:52.880Z,20.55
2022-08-18T00:38:23.268Z,18.85
2022-08-18T00:40:56.824Z,21.13
2022-08-18T00:43:39.872Z,22.10
2022-08-18T00:46:15.545Z,19.13
2022-08-18T00:48:48.470Z,19.05
2022-08-18T00:51:28.775Z,20.38
2022-08-18T00:54:04.104Z,22.70
2022-08-18T00:56:43.966Z,21.58
2022-08-18T00:59:27.196Z,22.38
2022-08-18T01:02:02.920Z,22.25
2022-08-18T01:04:39.124Z,21.00
2022-08-18T01:07:20.599Z,20.60
2022-08-18T01:09:51.019Z,21.33
2022-08-18T01:12:45.857Z,22.50
2022-08-18T01:15:27.549Z,20.45
2022-08-18T01:18:21.933Z,17.15
2022-08-18T01:21:16.044Z,21.70
2022-08-18T01:23:48.729Z,18.80
2022-08-18T01:26:19.528Z,21.15
2022-08-18T01:28:50.008Z,21.42
2022-08-18T01:31:38.293Z,21.63
2022-08-18T01:34:09.720Z,22.00
2022-08-18T01:36:41.892Z,22.80
2022-08-18T01:39:14.676Z,22.60
2022-08-18T01:42:04.767Z,21.95
2022-08-18T01:44:34.015Z,21.67
2022-08-18T01:47:02.559Z,21.13
2022-08-18T01:49:31.165Z,21.80
2022-08-18T01:51:59.927Z,21.10
2022-08-18T01:54:30.148Z,20.08
2022-08-18T01:56:59.338Z,21.38
2022-08-18T01:59:28.333Z,21.42
2022-08-18T02:02:00.170Z,22.50
2022-08-18T02:04:37.139Z,20.80
2022-08-18T02:07:11.925Z,21.02
2022-08-18T02:09:44.653Z,20.17
2022-08-18T02:12:14.857Z,18.90
2022-08-18T02:14:43.945Z,20.95
2022-08-18T02:17:14.818Z,19.92
2022-08-18T02:19:47.835Z,20.98
2022-08-18T02:22:20.784Z,21.15
2022-08-18T02:24:51.221Z,22.75
2022-08-18T02:27:20.042Z,22.10
2022-08-18T02:29:48.655Z,20.08
2022-08-18T02:32:17.197Z,21.95
2022-08-18T02:34:46.279Z,20.73
2022-08-18T02:37:15.690Z,20.80
2022-08-18T02:39:45.216Z,21.63
2022-08-18T02:42:18.548Z,21.60
2022-08-18T02:44:47.129Z,24.20
2022-08-18T02:47:16.041Z,21.02
2022-08-18T02:49:44.760Z,21.85
2022-08-18T02:52:13.631Z,21.50
2022-08-18T02:54:42.231Z,23.08
2022-08-18T02:57:13.441Z,21.65
2022-08-18T02:59:47.292Z,21.33
2022-08-18T03:02:16.638Z,21.38
2022-08-18T03:04:45.895Z,21.08
2022-08-18T03:07:15.545Z,21.55
2022-08-18T03:09:44.598Z,21.85
2022-08-18T03:12:13.544Z,21.35
2022-08-18T03:14:43.675Z,22.20
2022-08-18T03:17:14.911Z,21.58
2022-08-18T03:19:46.794Z,21.88
2022-08-18T03:22:28.243Z,23.73
2022-08-18T03:24:58.760Z,23.00
2022-08-18T03:27:28.110Z,21.35
2022-08-18T03:29:58.726Z,22.55
2022-08-18T03:32:27.494Z,25.27
2022-08-18T03:34:56.330Z,23.80
2022-08-18T03:37:24.901Z,22.55
2022-08-18T03:39:53.786Z,23.05
2022-08-18T03:42:22.981Z,24.77
2022-08-18T03:44:52.433Z,23.80
2022-08-18T03:47:22.336Z,23.13
2022-08-18T03:49:51.290Z,22.48
2022-08-18T03:52:19.831Z,22.27
2022-08-18T03:54:48.551Z,22.48
2022-08-18T03:57:17.316Z,23.33
2022-08-18T03:59:46.273Z,23.27
2022-08-18T04:02:15.445Z,23.75
2022-08-18T04:04:45.586Z,23.23
2022-08-18T04:07:17.540Z,23.85
2022-08-18T04:09:47.113Z,24.27
2022-08-18T04:12:17.702Z,24.05
2022-08-18T04:14:50.090Z,24.20
2022-08-18T04:17:25.223Z,26.52
2022-08-18T04:19:57.492Z,24.10
2022-08-18T04:22:26.822Z,24.23
2022-08-18T04:24:55.855Z,25.95
2022-08-18T04:27:26.631Z,26.67
2022-08-18T04:29:56.756Z,24.23
2022-08-18T04:32:30.260Z,24.23
2022-08-18T04:35:02.927Z,23.45
2022-08-18T04:37:33.202Z,26.98
2022-08-18T04:40:08.763Z,23.67
2022-08-18T04:42:38.542Z,19.05
2022-08-18T04:45:12.964Z,19.13
2022-08-18T04:47:43.213Z,25.27
2022-08-18T04:50:14.835Z,24.83
2022-08-18T04:53:02.114Z,25.17
2022-08-18T04:55:30.919Z,26.50
2022-08-18T04:57:59.703Z,28.10
2022-08-18T05:00:28.315Z,31.55
2022-08-18T05:02:58.181Z,29.73
2022-08-18T05:05:28.523Z,27.83
2022-08-18T05:07:58.080Z,26.48
2022-08-18T05:10:26.658Z,26.25
2022-08-18T05:12:55.791Z,26.02
2022-08-18T05:15:24.465Z,27.02
2022-08-18T05:17:53.336Z,27.17
2022-08-18T05:20:23.267Z,25.95
2022-08-18T05:22:53.177Z,25.73
2022-08-18T05:25:21.729Z,26.83
2022-08-18T05:27:50.589Z,25.25
2022-08-18T05:30:19.341Z,28.05
2022-08-18T05:32:50.472Z,29.85
2022-08-18T05:35:26.228Z,29.88
2022-08-18T05:38:20.031Z,31.70
2022-08-18T05:41:13.824Z,28.15
2022-08-18T05:43:52.070Z,28.33
2022-08-18T05:46:31.924Z,28.67
2022-08-18T05:49:00.798Z,27.70
2022-08-18T05:51:39.417Z,27.60
2022-08-18T05:54:28.188Z,29.77
2022-08-18T05:57:05.100Z,29.63
2022-08-18T05:59:38.245Z,25.90
2022-08-18T06:02:17.077Z,27.08
2022-08-18T06:04:52.655Z,26.40
2022-08-18T06:07:37.162Z,25.70
2022-08-18T06:10:11.667Z,28.63
2022-08-18T06:12:47.045Z,33.15
2022-08-18T06:15:24.234Z,23.70
2022-08-18T06:18:22.037Z,26.58
2022-08-18T06:21:29.459Z,30.30
2022-08-18T06:24:10.871Z,23.60
2022-08-18T06:26:51.477Z,23.50
2022-08-18T06:29:42.075Z,24.70
2022-08-18T06:32:27.681Z,24.98
2022-08-18T06:35:18.216Z,20.58
2022-08-18T06:38:20.701Z,26.02
2022-08-18T06:40:50.054Z,25.27
2022-08-18T06:43:20.409Z,24.08
2022-08-18T06:45:53.122Z,21.95
2022-08-18T06:48:33.699Z,24.40
2022-08-18T06:51:04.999Z,22.65
2022-08-18T06:53:58.554Z,23.10
2022-08-18T06:56:37.030Z,23.63
2022-08-18T06:59:26.370Z,19.90
2022-08-18T07:02:01.629Z,17.05
2022-08-18T07:05:01.777Z,17.67
2022-08-18T07:07:40.297Z,17.40
2022-08-18T07:10:33.207Z,18.02
2022-08-18T07:13:20.649Z,19.42
2022-08-18T07:15:51.845Z,16.02
2022-08-18T07:18:28.619Z,15.48
2022-08-18T07:21:01.498Z,13.82
2022-08-18T07:23:35.840Z,13.75
2022-08-18T07:26:11.845Z,14.18
2022-08-18T07:28:46.848Z,14.77
2022-08-18T07:31:26.825Z,13.95
2022-08-18T07:34:02.620Z,13.60
2022-08-18T07:36:47.633Z,12.85
2022-08-18T07:39:29.645Z,12.55
2022-08-18T07:42:10.969Z,14.02
2022-08-18T07:44:52.748Z,11.82
2022-08-18T07:47:33.045Z,14.13
2022-08-18T07:50:22.877Z,11.55
2022-08-18T07:53:07.382Z,11.65
2022-08-18T07:55:37.693Z,11.70
2022-08-18T07:58:26.127Z,10.95
2022-08-18T08:01:03.333Z,10.88
2022-08-18T08:03:53.043Z,10.00
2022-08-18T08:06:29.968Z,10.10
2022-08-18T08:09:21.126Z,11.15
2022-08-18T08:11:57.835Z,9.48
2022-08-18T08:14:42.592Z,10.70
2022-08-18T08:17:25.742Z,11.82
2022-08-18T08:20:10.440Z,10.65
2022-08-18T08:22:52.209Z,10.95
2022-08-18T08:25:47.912Z,10.95
2022-08-18T08:28:35.072Z,13.25
2022-08-18T08:31:36.248Z,12.23
2022-08-18T08:34:14.984Z,10.50
2022-08-18T08:36:49.146Z,12.70
2022-08-18T08:39:25.157Z,10.50
2022-08-18T08:42:30.977Z,10.45
2022-08-18T08:44:59.862Z,10.23
2022-08-18T08:47:37.861Z,10.23
2022-08-18T08:50:13.276Z,9.43
2022-08-18T08:52:56.697Z,10.25
2022-08-18T08:55:32.211Z,9.20
2022-08-18T08:58:26.608Z,10.45
2022-08-18T09:00:57.827Z,10.27
2022-08-18T09:03:50.673Z,7.97
2022-08-18T09:06:36.135Z,10.55
2022-08-18T09:09:41.037Z,8.98
2022-08-18T09:12:42.141Z,9.77
2022-08-18T09:16:13.883Z,8.88
2022-08-18T09:19:07.787Z,7.22
2022-08-18T09:21:48.001Z,10.38
2022-08-18T09:24:27.424Z,7.97
2022-08-18T09:27:24.255Z,10.32
2022-08-18T09:29:57.469Z,10.10
2022-08-18T09:32:59.899Z,10.70
2022-08-18T09:36:10.598Z,9.77
2022-08-18T09:39:10.320Z,7.80
2022-08-18T09:41:50.766Z,7.90
2022-08-18T09:45:00.927Z,8.43
2022-08-18T09:48:00.112Z,11.25
2022-08-18T09:50:58.923Z,7.65
2022-08-18T09:54:07.978Z,10.02
2022-08-18T09:57:20.924Z,8.43
2022-08-18T10:00:28.264Z,8.55
2022-08-18T10:03:25.420Z,8.95
2022-08-18T10:06:20.814Z,8.68
2022-08-18T10:09:36.314Z,8.45
2022-08-18T10:12:24.210Z,9.10
2022-08-18T10:15:36.960Z,10.88
2022-08-18T10:18:40.751Z,8.95
2022-08-18T10:21:18.871Z,8.52
2022-08-18T10:24:21.755Z,8.90
2022-08-18T10:27:15.278Z,8.20
2022-08-18T10:29:59.155Z,7.93
2022-08-18T10:32:54.723Z,7.72
2022-08-18T10:36:11.146Z,7.70
2022-08-18T10:38:49.349Z,8.98
2022-08-18T10:41:30.703Z,9.13
2022-08-18T10:44:20.806Z,8.32
2022-08-18T10:46:54.272Z,10.25
2022-08-18T10:49:27.688Z,7.95
2022-08-18T10:52:35.209Z,9.43
2022-08-18T10:59:16.583Z,8.25
2022-08-18T11:02:13.454Z,8.23
2022-08-18T11:04:58.955Z,8.68
2022-08-18T11:10:57.724Z,10.35
2022-08-18T11:13:39.111Z,9.25
2022-08-18T11:16:28.893Z,7.15
2022-08-18T11:19:07.511Z,8.50
2022-08-18T11:21:43.865Z,7.93
2022-08-18T11:24:18.449Z,9.50
2022-08-18T11:26:53.194Z,7.38
2022-08-18T11:29:32.437Z,6.85
2022-08-18T11:32:10.365Z,6.55
2022-08-18T11:34:51.938Z,7.43
2022-08-18T11:37:28.117Z,8.63
2022-08-18T11:41:10.627Z,7.55
2022-08-18T11:43:39.053Z,7.72
2022-08-18T11:46:29.954Z,8.65
2022-08-18T11:49:16.618Z,7.78
2022-08-18T11:52:25.009Z,10.32
2022-08-18T11:55:16.229Z,7.75
2022-08-18T11:57:58.758Z,7.72
2022-08-18T12:01:01.426Z,8.07
2022-08-18T12:03:43.455Z,9.23
2022-08-18T12:06:26.612Z,8.23
2022-08-18T12:09:02.326Z,9.52
2022-08-18T12:11:34.904Z,8.18
2022-08-18T12:14:30.726Z,7.50
2022-08-18T12:16:59.768Z,9.23
2022-08-18T12:19:31.434Z,10.40
2022-08-18T12:22:18.533Z,10.30
2022-08-18T12:24:48.199Z,8.23
2022-08-18T12:27:22.193Z,10.02
2022-08-18T12:29:52.888Z,10.02
2022-08-18T12:32:48.722Z,8.60
2022-08-18T12:35:16.111Z,8.70
2022-08-18T12:37:59.433Z,9.52
2022-08-18T12:40:29.617Z,8.82
2022-08-18T12:42:58.455Z,9.55
2022-08-18T12:45:31.153Z,10.18
2022-08-18T12:48:04.115Z,8.80
2022-08-18T12:50:39.171Z,10.40
2022-08-18T12:53:30.508Z,9.00
2022-08-18T12:56:10.688Z,8.75
2022-08-18T12:58:40.731Z,9.02
2022-08-18T13:01:09.535Z,8.18
2022-08-18T13:03:38.918Z,9.95
2022-08-18T13:06:12.562Z,9.05
2022-08-18T13:08:48.162Z,9.27
2022-08-18T13:11:23.817Z,9.43
2022-08-18T13:13:57.183Z,8.95
2022-08-18T13:16:53.748Z,8.30
2022-08-18T13:19:23.668Z,9.90
2022-08-18T13:21:53.155Z,8.32
2022-08-18T13:24:27.063Z,8.93
2022-08-18T13:26:56.803Z,10.98
2022-08-18T13:29:25.654Z,10.07
2022-08-18T13:31:58.176Z,9.98
2022-08-18T13:34:30.080Z,9.50
2022-08-18T13:36:59.003Z,8.57
2022-08-18T13:39:34.087Z,8.68
2022-08-18T13:42:21.663Z,8.07
2022-08-18T13:44:55.122Z,8.32
2022-08-18T13:47:29.342Z,9.63
2022-08-18T13:49:59.985Z,8.15
2022-08-18T13:52:35.637Z,9.93
2022-08-18T13:55:13.609Z,9.05
2022-08-18T13:57:49.738Z,9.30
2022-08-18T14:00:29.597Z,8.20
2022-08-18T14:03:03.466Z,10.43
2022-08-18T14:05:50.835Z,8.75
2022-08-18T14:08:21.281Z,9.23
2022-08-18T14:10:57.664Z,9.98
2022-08-18T14:13:26.625Z,10.10
2022-08-18T14:15:59.093Z,9.90
2022-08-18T14:18:30.977Z,9.52
2022-08-18T14:21:21.761Z,9.75
2022-08-18T14:24:10.182Z,12.88
2022-08-18T14:26:57.608Z,9.75
2022-08-18T14:29:46.063Z,10.32
2022-08-18T14:32:18.043Z,9.65
2022-08-18T14:34:51.163Z,9.00
2022-08-18T14:37:27.914Z,10.52
2022-08-18T14:39:56.516Z,10.63
2022-08-18T14:42:41.501Z,9.52
2022-08-18T14:45:31.220Z,14.05
2022-08-18T14:48:06.471Z,8.88
2022-08-18T14:50:37.107Z,9.48
2022-08-18T14:53:06.961Z,11.60
2022-08-18T14:55:37.774Z,9.55
2022-08-18T14:58:08.974Z,12.50
2022-08-18T15:00:49.869Z,10.13
2022-08-18T15:03:31.196Z,10.07
2022-08-18T15:06:04.673Z,9.60
2022-08-18T15:08:35.778Z,8.88
2022-08-18T15:11:11.661Z,12.90
2022-08-18T15:13:46.572Z,10.18
2022-08-18T15:16:17.343Z,11.30
2022-08-18T15:18:48.146Z,10.30
2022-08-18T15:21:38.565Z,10.32
2022-08-18T15:24:26.366Z,10.43
2022-08-18T15:26:58.039Z,11.10
2022-08-18T15:29:33.269Z,11.27
2022-08-18T15:32:05.583Z,13.60
2022-08-18T15:34:45.975Z,10.23
2022-08-18T15:37:19.815Z,11.00
2022-08-18T15:39:51.887Z,10.05
2022-08-18T15:42:25.029Z,9.27
2022-08-18T15:44:55.185Z,9.82
2022-08-18T15:47:25.497Z,9.68
2022-08-18T15:49:54.964Z,11.88
2022-08-18T15:52:26.205Z,12.32
2022-08-18T15:54:57.097Z,10.43
2022-08-18T15:57:39.851Z,14.35
2022-08-18T16:00:12.409Z,11.52
2022-08-18T16:02:44.767Z,13.52
2022-08-18T16:05:18.256Z,10.07
2022-08-18T16:07:47.652Z,11.02
2022-08-18T16:10:19.177Z,9.98
2022-08-18T16:12:48.916Z,10.50
2022-08-18T16:15:23.524Z,10.38
2022-08-18T16:17:55.050Z,9.95
2022-08-18T16:20:25.401Z,9.65
2022-08-18T16:22:54.748Z,9.10
2022-08-18T16:25:23.292Z,10.55
2022-08-18T16:27:53.928Z,9.75
2022-08-18T16:30:27.839Z,11.18
2022-08-18T16:33:01.321Z,9.35
2022-08-18T16:35:31.197Z,11.00
2022-08-18T16:38:04.486Z,9.63
2022-08-18T16:40:33.296Z,11.05
2022-08-18T16:43:01.948Z,9.10
2022-08-18T16:45:33.632Z,12.38
2022-08-18T16:48:02.724Z,12.27
2022-08-18T16:50:31.451Z,10.95
2022-08-18T16:52:59.985Z,9.45
2022-08-18T16:55:29.014Z,9.60
2022-08-18T16:58:15.833Z,11.05
2022-08-18T17:01:03.746Z,8.50
2022-08-18T17:03:49.948Z,9.48
2022-08-18T17:06:20.877Z,8.60
2022-08-18T17:08:49.449Z,8.32
2022-08-18T17:11:20.082Z,10.30
2022-08-18T17:13:52.103Z,8.70
2022-08-18T17:16:24.952Z,11.18
2022-08-18T17:18:55.798Z,9.57
2022-08-18T17:24:07.630Z,12.05
2022-08-18T17:26:49.516Z,9.07
2022-08-18T17:29:23.256Z,9.70
2022-08-18T17:32:04.053Z,11.85
2022-08-18T17:34:39.458Z,10.55
2022-08-18T17:37:11.857Z,10.10
2022-08-18T17:39:51.724Z,10.68
2022-08-18T17:42:29.255Z,12.70
2022-08-18T17:45:04.038Z,9.77
2022-08-18T17:47:46.623Z,9.75
2022-08-18T17:50:54.593Z,9.25
2022-08-18T17:53:23.832Z,8.45
2022-08-18T17:56:00.920Z,9.25
2022-08-18T17:58:40.377Z,10.63
2022-08-18T18:01:11.164Z,10.90
2022-08-18T18:03:44.310Z,9.98
2022-08-18T18:06:31.578Z,9.90
2022-08-18T18:09:03.916Z,9.57
2022-08-18T18:11:37.532Z,12.75
2022-08-18T18:14:29.239Z,10.38
2022-08-18T18:17:07.392Z,11.52
2022-08-18T18:19:38.150Z,11.52
2022-08-18T18:22:11.327Z,10.82
2022-08-18T18:24:54.609Z,11.00
2022-08-18T18:27:32.017Z,12.30
2022-08-18T18:30:06.046Z,11.15
2022-08-18T18:32:38.767Z,10.38
2022-08-18T18:35:27.176Z,13.15
2022-08-18T18:38:00.984Z,11.75
2022-08-18T18:40:35.927Z,11.57
2022-08-18T18:43:23.684Z,11.68
2022-08-18T18:46:29.930Z,11.27
2022-08-18T18:49:18.915Z,10.90
2022-08-18T18:52:12.311Z,12.35
2022-08-18T18:55:03.496Z,11.73
2022-08-18T18:57:45.587Z,12.80
2022-08-18T19:00:23.133Z,12.75
2022-08-18T19:03:05.147Z,11.02
2022-08-18T19:05:41.153Z,10.40
2022-08-18T19:08:26.350Z,10.15
2022-08-18T19:11:05.684Z,14.00
2022-08-18T19:13:43.061Z,11.60
2022-08-18T19:16:23.413Z,12.85
2022-08-18T19:19:37.737Z,12.85
2022-08-18T19:22:06.424Z,11.77
2022-08-18T19:24:53.456Z,11.98
2022-08-18T19:27:30.438Z,11.65
2022-08-18T19:30:07.323Z,11.75
2022-08-18T19:32:44.199Z,12.73
2022-08-18T19:35:19.709Z,12.38
2022-08-18T19:38:09.758Z,11.63
2022-08-18T19:40:48.592Z,11.60
2022-08-18T19:43:26.721Z,12.88
2022-08-18T19:46:11.050Z,12.68
2022-08-18T19:48:51.442Z,12.50
2022-08-18T19:51:29.554Z,13.88
2022-08-18T19:54:22.253Z,14.52
2022-08-18T19:57:23.149Z,14.38
2022-08-18T20:00:18.340Z,13.82
2022-08-18T20:03:42.970Z,12.68
2022-08-18T20:06:37.083Z,13.68
2022-08-18T20:09:40.489Z,13.82
2022-08-18T20:12:27.201Z,13.07
2022-08-18T20:15:13.732Z,11.90
2022-08-18T20:18:07.911Z,12.60
2022-08-18T20:20:39.375Z,13.38
2022-08-18T20:23:34.823Z,12.80
2022-08-18T20:26:03.468Z,13.38
2022-08-18T20:28:40.799Z,12.18
2022-08-18T20:31:17.898Z,12.65
2022-08-18T20:34:12.221Z,15.10
2022-08-18T20:36:44.777Z,12.45
2022-08-18T20:39:44.268Z,12.80
2022-08-18T20:42:55.928Z,13.05
2022-08-18T20:45:35.944Z,14.65
2022-08-18T20:48:33.512Z,14.55
2022-08-18T20:51:12.724Z,14.55
2022-08-18T20:54:13.373Z,15.05
2022-08-18T20:56:48.627Z,14.43
2022-08-18T20:59:24.650Z,18.40
2022-08-18T21:01:58.680Z,17.02
2022-08-18T21:04:49.237Z,13.95
2022-08-18T21:07:36.685Z,14.57
2022-08-18T21:10:19.001Z,14.38
2022-08-18T21:12:53.704Z,17.98
2022-08-18T21:15:28.029Z,17.27
2022-08-18T21:18:04.930Z,16.90
2022-08-18T21:20:35.251Z,16.35
2022-08-18T21:23:11.832Z,15.63
2022-08-18T21:25:53.396Z,18.05
2022-08-18T21:28:26.353Z,16.30
2022-08-18T21:31:28.954Z,22.02
2022-08-18T21:33:56.092Z,16.48
2022-08-18T21:36:31.638Z,14.52
2022-08-18T21:39:07.461Z,14.75
2022-08-18T21:41:46.854Z,14.60
2022-08-18T21:44:22.709Z,12.98
2022-08-18T21:47:05.745Z,13.07
2022-08-18T21:49:35.908Z,15.77
2022-08-18T21:52:05.103Z,12.45
2022-08-18T21:54:35.617Z,13.95
2022-08-18T21:57:22.501Z,13.45
2022-08-18T22:00:25.788Z,12.90
2022-08-18T22:03:19.082Z,12.13
2022-08-18T22:06:00.793Z,12.23
2022-08-18T22:08:33.673Z,12.13
2022-08-18T22:12:00.937Z,13.75
2022-08-18T22:14:55.187Z,14.80
2022-08-18T22:17:43.554Z,12.90
2022-08-18T22:20:47.962Z,14.52
2022-08-18T22:23:50.724Z,13.52
2022-08-18T22:26:25.521Z,13.70
2022-08-18T22:29:11.649Z,11.68
2022-08-18T22:31:44.127Z,13.35
2022-08-18T22:34:16.300Z,14.20
2022-08-18T22:36:52.710Z,14.18
2022-08-18T22:39:27.913Z,12.95
2022-08-18T22:41:57.218Z,14.40
2022-08-18T22:44:26.325Z,12.07
2022-08-18T22:46:54.943Z,14.63
2022-08-18T22:49:24.507Z,12.23
2022-08-18T22:51:56.182Z,12.20
2022-08-18T22:54:26.717Z,12.98
2022-08-18T22:56:57.718Z,13.52
2022-08-18T22:59:27.271Z,13.23
2022-08-18T23:01:57.983Z,15.73
2022-08-18T23:04:27.973Z,15.93
2022-08-18T23:06:57.336Z,13.30
2022-08-18T23:09:31.915Z,14.70
2022-08-18T23:12:04.549Z,14.32
2022-08-18T23:14:34.168Z,13.45
2022-08-18T23:17:05.281Z,12.02
2022-08-18T23:19:35.321Z,14.25
2022-08-18T23:22:06.183Z,12.73
2022-08-18T23:24:36.843Z,14.93
2022-08-18T23:27:07.144Z,12.95
2022-08-18T23:29:36.669Z,11.52
2022-08-18T23:32:06.975Z,12.43
2022-08-18T23:34:37.695Z,12.50
2022-08-18T23:37:07.815Z,12.32
2022-08-18T23:39:39.643Z,13.05
2022-08-18T23:42:13.120Z,10.68
2022-08-18T23:44:43.335Z,11.88
2022-08-18T23:47:11.930Z,12.45
2022-08-18T23:49:40.473Z,14.10
2022-08-18T23:52:09.530Z,12.80
2022-08-18T23:54:39.455Z,12.88
2022-08-18T23:57:08.015Z,16.02
2022-08-18T23:59:36.835Z,13.32
